Time;durP1;ratioP1;P1;durP2;ratioP2;P2;SDS_P1;SDS_P2;PMS_P1;PMS_P2;Temp;Humidity;BMP_temperature;BMP_pressure;BME280_temperature;BME280_humidity;BME280_pressure;Samples;Min_cycle;Max_cycle;Signal;HPM_P1;HPM_P2
2021/01/05 00:01:05;;;;;;;55.50;25.95;;;256.20;2073.60;;;;;;5094771;28;20095;-70
2021/01/05 00:03:31;;;;;;;47.08;23.83;;;256.30;2073.60;;;;;;5094421;28;20047;-71
2021/01/05 00:05:56;;;;;;;45.92;23.73;;;256.20;2073.60;;;;;;5094622;28;20020;-70
2021/01/05 00:08:22;;;;;;;40.47;22.05;;;256.20;2073.60;;;;;;5094364;28;20016;-70
2021/01/05 00:10:48;;;;;;;39.90;21.77;;;256.20;2073.60;;;;;;5094521;28;20370;-71
2021/01/05 00:13:13;;;;;;;39.13;21.92;;;256.10;2073.60;;;;;;5094837;28;20481;-70
2021/01/05 00:15:39;;;;;;;41.13;23.95;;;256.10;2073.60;;;;;;5094353;28;20069;-70
2021/01/05 00:18:05;;;;;;;40.10;22.13;;;256.20;2073.60;;;;;;5094252;28;20024;-71
2021/01/05 00:20:32;;;;;;;39.28;21.42;;;256.10;2073.60;;;;;;5094449;28;20028;-70
2021/01/05 00:22:59;;;;;;;40.08;22.42;;;256.10;2073.60;;;;;;5093827;28;20039;-70
2021/01/05 00:25:24;;;;;;;36.75;21.85;;;256.10;2073.60;;;;;;5075444;28;20036;-70
2021/01/05 00:27:51;;;;;;;40.13;21.95;;;256.10;2073.60;;;;;;5094372;28;20032;-70
2021/01/05 00:30:23;;;;;;;37.53;22.10;;;256.10;2073.60;;;;;;5094345;28;20012;-71
2021/01/05 00:32:50;;;;;;;40.33;22.65;;;256.10;2073.60;;;;;;5094141;28;20036;-71
2021/01/05 00:35:28;;;;;;;40.97;23.02;;;256.10;2073.60;;;;;;5093844;28;20052;-71
2021/01/05 00:37:54;;;;;;;35.47;20.73;;;256.10;2073.60;;;;;;5093904;28;20377;-71
2021/01/05 00:40:23;;;;;;;36.70;22.10;;;256.00;2073.60;;;;;;5093347;28;20020;-70
2021/01/05 00:42:48;;;;;;;38.08;22.25;;;256.10;2073.60;;;;;;5075866;28;20111;-70
2021/01/05 00:45:21;;;;;;;37.25;22.98;;;256.10;2073.60;;;;;;5094098;28;20044;-71
2021/01/05 00:47:47;;;;;;;39.33;24.25;;;256.00;2073.60;;;;;;5094201;28;20032;-70
2021/01/05 00:50:13;;;;;;;44.33;25.27;;;256.00;2073.60;;;;;;5093947;28;20023;-69
2021/01/05 00:52:39;;;;;;;40.30;24.83;;;256.00;2073.60;;;;;;5093923;28;20032;-69
2021/01/05 00:55:05;;;;;;;40.50;23.83;;;256.00;2073.60;;;;;;5093638;28;20108;-69
2021/01/05 00:57:31;;;;;;;39.72;22.85;;;256.00;2073.60;;;;;;5075044;28;20024;-69
2021/01/05 00:59:57;;;;;;;38.40;23.00;;;256.00;2073.60;;;;;;5094115;28;20089;-70
2021/01/05 01:02:22;;;;;;;37.55;22.65;;;256.00;2073.60;;;;;;5093707;28;20071;-69
2021/01/05 01:04:48;;;;;;;39.50;23.50;;;231.30;2073.60;;;;;;5093570;28;20097;-69
2021/01/05 01:07:14;;;;;;;37.70;23.77;;;231.30;2073.60;;;;;;5093662;28;20051;-70
2021/01/05 01:09:40;;;;;;;39.92;24.20;;;256.00;2073.60;;;;;;5093708;28;20530;-69
2021/01/05 01:12:16;;;;;;;39.47;24.40;;;231.30;2073.60;;;;;;5093567;28;20040;-70
2021/01/05 01:14:45;;;;;;;36.20;22.70;;;231.30;2073.60;;;;;;5093638;28;20031;-70
2021/01/05 01:17:11;;;;;;;38.08;23.85;;;231.30;2073.60;;;;;;5093705;28;20111;-71
2021/01/05 01:19:37;;;;;;;41.13;23.58;;;231.30;2073.60;;;;;;5093964;28;20035;-69
2021/01/05 01:22:03;;;;;;;41.15;23.88;;;231.30;2073.60;;;;;;5093542;28;20029;-70
2021/01/05 01:24:28;;;;;;;38.35;22.98;;;231.30;2073.60;;;;;;5093537;28;20024;-70
2021/01/05 01:27:03;;;;;;;37.13;23.42;;;231.30;2073.60;;;;;;5093334;28;20073;-69
2021/01/05 01:29:29;;;;;;;41.17;24.55;;;231.30;2073.60;;;;;;5093458;28;20485;-71
2021/01/05 01:31:56;;;;;;;42.95;24.20;;;231.30;2073.60;;;;;;5093656;28;20029;-71
2021/01/05 01:34:24;;;;;;;43.03;24.92;;;231.30;2073.60;;;;;;5095082;28;20073;-70
2021/01/05 01:36:58;;;;;;;41.92;25.38;;;231.30;2073.60;;;;;;5097500;28;20016;-72
2021/01/05 01:39:25;;;;;;;42.42;26.10;;;231.20;2073.60;;;;;;5097460;28;20051;-72
2021/01/05 01:41:52;;;;;;;42.58;25.48;;;231.20;2073.60;;;;;;5097229;28;20081;-72
2021/01/05 01:44:29;;;;;;;44.28;25.38;;;231.20;2073.60;;;;;;5079069;28;20024;-71
2021/01/05 01:47:17;;;;;;;48.03;27.58;;;231.20;2073.60;;;;;;5079241;28;20111;-71
2021/01/05 01:49:50;;;;;;;49.75;28.60;;;231.20;2073.60;;;;;;5096234;28;20393;-70
2021/01/05 01:52:32;;;;;;;54.40;29.77;;;231.20;2073.60;;;;;;5097174;28;20040;-70
2021/01/05 01:55:29;;;;;;;52.10;28.92;;;231.20;2073.60;;;;;;5097533;28;20055;-69
2021/01/05 01:58:22;;;;;;;56.45;30.75;;;231.20;2073.60;;;;;;5096921;28;20043;-69
2021/01/05 02:01:10;;;;;;;59.75;31.52;;;231.20;2073.60;;;;;;5097000;28;20031;-70
2021/01/05 02:03:55;;;;;;;57.15;30.70;;;231.10;2073.60;;;;;;5096745;28;20481;-73
2021/01/05 02:06:42;;;;;;;58.80;30.15;;;231.10;2073.60;;;;;;5096834;28;20024;-73
2021/01/05 02:09:35;;;;;;;60.17;30.88;;;231.10;2073.60;;;;;;5096459;28;20024;-73
2021/01/05 02:12:07;;;;;;;56.80;29.45;;;231.10;2073.60;;;;;;5096749;28;20042;-73
2021/01/05 02:14:54;;;;;;;53.25;28.88;;;231.10;2073.60;;;;;;5096800;28;20031;-73
2021/01/05 02:17:40;;;;;;;52.80;27.83;;;231.10;2073.60;;;;;;5096748;28;20107;-72
2021/01/05 02:20:12;;;;;;;54.85;29.48;;;231.00;2073.60;;;;;;5096577;28;20031;-73
2021/01/05 02:22:50;;;;;;;53.95;29.25;;;231.00;2073.60;;;;;;5096677;28;20504;-73
2021/01/05 02:25:26;;;;;;;59.63;31.55;;;231.00;2073.60;;;;;;5096336;28;20103;-73
2021/01/05 02:27:58;;;;;;;61.22;30.80;;;231.00;2073.60;;;;;;5096371;28;20024;-72
2021/01/05 02:30:33;;;;;;;60.28;29.48;;;231.00;2099.20;;;;;;5096378;28;20462;-73
2021/01/05 02:33:31;;;;;;;53.60;27.52;;;231.00;2099.20;;;;;;5096370;28;20110;-73
2021/01/05 02:36:34;;;;;;;55.33;27.38;;;231.00;2099.20;;;;;;5096446;28;20043;-73
2021/01/05 02:39:37;;;;;;;57.25;28.17;;;231.00;2073.60;;;;;;5096122;28;20031;-73
2021/01/05 02:42:33;;;;;;;53.70;28.50;;;231.00;2099.20;;;;;;5096304;28;20035;-73
2021/01/05 02:45:08;;;;;;;54.40;28.05;;;231.00;2073.60;;;;;;5095668;28;20541;-72
2021/01/05 02:47:58;;;;;;;56.30;26.67;;;230.90;2099.20;;;;;;5096146;28;20066;-72
2021/01/05 02:51:00;;;;;;;55.33;27.85;;;230.90;2099.20;;;;;;5096137;28;20051;-72
2021/01/05 02:53:54;;;;;;;56.42;26.65;;;230.90;2099.20;;;;;;5096099;28;20040;-72
2021/01/05 02:56:37;;;;;;;64.30;29.40;;;230.90;2099.20;;;;;;5095705;28;20028;-73
2021/01/05 02:59:21;;;;;;;54.78;27.88;;;230.90;2099.20;;;;;;5095688;28;20028;-72
2021/01/05 03:01:56;;;;;;;60.85;30.17;;;230.90;2099.20;;;;;;5077408;28;20517;-72
2021/01/05 03:04:21;;;;;;;60.08;29.52;;;230.90;2099.20;;;;;;5095836;28;20020;-72
2021/01/05 03:06:52;;;;;;;58.35;29.23;;;230.90;2099.20;;;;;;5095597;28;20111;-73
2021/01/05 03:09:47;;;;;;;61.10;29.48;;;230.90;2099.20;;;;;;5095476;28;20466;-73
2021/01/05 03:12:21;;;;;;;57.42;28.73;;;231.00;2099.20;;;;;;5013275;28;20503;-73
2021/01/05 03:14:56;;;;;;;61.63;30.52;;;230.90;2099.20;;;;;;5013512;28;20021;-74
2021/01/05 03:17:35;;;;;;;;;;;230.90;2099.20;;;;;;5013803;28;20037;-73
2021/01/05 03:20:04;;;;;;;65.13;32.70;;;230.90;2099.20;;;;;;5013492;28;19929;-74
2021/01/05 03:22:33;;;;;;;63.55;33.33;;;230.80;2099.20;;;;;;5013248;28;20040;-74
2021/01/05 03:25:01;;;;;;;60.30;33.10;;;230.80;2099.20;;;;;;5013307;28;20026;-74
2021/01/05 03:27:28;;;;;;;58.80;30.67;;;230.80;2099.20;;;;;;5013134;28;20102;-73
2021/01/05 03:29:58;;;;;;;67.07;33.58;;;230.90;2099.20;;;;;;5013233;28;20037;-74
2021/01/05 03:32:25;;;;;;;58.58;30.73;;;230.80;2099.20;;;;;;5013244;28;20116;-73
2021/01/05 03:34:51;;;;;;;65.05;31.38;;;230.80;2099.20;;;;;;4996645;28;20033;-75
2021/01/05 03:37:17;;;;;;;56.75;30.30;;;230.80;2099.20;;;;;;5012962;28;20034;-75
2021/01/05 03:39:43;;;;;;;53.75;29.05;;;230.90;2099.20;;;;;;4995598;28;20490;-76
2021/01/05 03:42:08;;;;;;;55.10;29.95;;;230.80;2099.20;;;;;;5012860;28;20419;-76
2021/01/05 03:44:34;;;;;;;57.13;29.27;;;230.80;2073.60;;;;;;5013187;28;20018;-76
2021/01/05 03:47:00;;;;;;;52.80;28.13;;;230.80;2099.20;;;;;;5012994;28;20379;-75
2021/01/05 03:49:26;;;;;;;57.78;28.75;;;230.80;2073.60;;;;;;5068861;28;20068;-75
2021/01/05 03:51:52;;;;;;;47.60;26.83;;;230.80;2099.20;;;;;;5094729;28;20484;-74
2021/01/05 03:54:17;;;;;;;55.72;30.20;;;230.80;2073.60;;;;;;5094791;28;20016;-74
2021/01/05 03:56:43;;;;;;;55.88;29.23;;;230.80;2073.60;;;;;;5075596;28;20109;-73
2021/01/05 03:59:09;;;;;;;53.65;27.73;;;230.80;2073.60;;;;;;5094585;28;20024;-73
2021/01/05 04:01:34;;;;;;;52.22;27.23;;;230.80;2073.60;;;;;;5094547;28;20394;-73
2021/01/05 04:04:00;;;;;;;52.05;27.35;;;230.80;2073.60;;;;;;5094588;28;20028;-74
2021/01/05 04:06:27;;;;;;;48.22;26.27;;;230.70;2073.60;;;;;;5094426;28;20467;-73
2021/01/05 04:08:53;;;;;;;53.67;27.67;;;230.80;2073.60;;;;;;5094085;28;20111;-73
2021/01/05 04:11:19;;;;;;;52.75;27.20;;;230.70;2073.60;;;;;;5094368;28;20024;-73
2021/01/05 04:13:45;;;;;;;53.33;27.88;;;230.70;2073.60;;;;;;5094503;28;20039;-73
2021/01/05 04:16:11;;;;;;;51.13;27.58;;;230.80;2073.60;;;;;;5094539;28;20023;-73
2021/01/05 04:18:36;;;;;;;48.75;27.27;;;230.70;2073.60;;;;;;5094452;28;20020;-73
2021/01/05 04:21:02;;;;;;;48.45;27.27;;;230.70;2073.60;;;;;;5094106;28;20069;-72
2021/01/05 04:23:28;;;;;;;54.03;27.88;;;230.70;2073.60;;;;;;5094502;28;20065;-73
2021/01/05 04:25:54;;;;;;;52.65;30.27;;;230.70;2073.60;;;;;;5094307;28;20028;-73
2021/01/05 04:28:19;;;;;;;51.53;28.40;;;230.70;2073.60;;;;;;5093765;28;20473;-73
2021/01/05 04:30:45;;;;;;;49.08;28.10;;;230.70;2073.60;;;;;;5094121;28;20039;-74
2021/01/05 04:33:13;;;;;;;55.70;30.33;;;230.70;2073.60;;;;;;5094114;28;20424;-75
2021/01/05 04:35:40;;;;;;;50.25;28.05;;;230.70;2073.60;;;;;;5094022;28;20492;-74
2021/01/05 04:38:06;;;;;;;50.10;28.15;;;230.70;2073.60;;;;;;5094143;28;20421;-73
2021/01/05 04:40:38;;;;;;;48.85;26.58;;;230.70;2073.60;;;;;;5094034;28;20500;-74
2021/01/05 04:43:34;;;;;;;47.40;25.95;;;230.70;2073.60;;;;;;5094035;28;20020;-74
2021/01/05 04:46:15;;;;;;;48.20;26.38;;;230.70;2073.60;;;;;;5094330;28;20547;-74
2021/01/05 04:48:57;;;;;;;46.40;27.75;;;230.60;2073.60;;;;;;5093834;28;20038;-73
2021/01/05 04:51:42;;;;;;;50.13;26.77;;;230.70;2073.60;;;;;;5093968;28;20099;-72
2021/01/05 04:54:46;;;;;;;48.97;27.40;;;230.70;2073.60;;;;;;5093822;28;20448;-73
2021/01/05 04:57:18;;;;;;;48.33;27.05;;;230.70;2073.60;;;;;;5012107;28;20033;-73
2021/01/05 05:00:06;;;;;;;47.70;25.75;;;230.60;2073.60;;;;;;5011913;28;20030;-73
2021/01/05 05:02:59;;;;;;;49.70;26.05;;;230.70;2073.60;;;;;;5010884;28;20042;-73
2021/01/05 05:05:30;;;;;;;49.47;25.73;;;230.70;2073.60;;;;;;4995009;28;20093;-74
2021/01/05 05:08:25;;;;;;;46.72;24.85;;;230.60;2073.60;;;;;;5012598;28;20515;-74
2021/01/05 05:10:53;;;;;;;;;;;230.60;2073.60;;;;;;5015810;28;20042;-73
2021/01/05 05:13:46;;;;;;;50.60;25.70;;;230.60;2073.60;;;;;;5015612;28;19913;-73
2021/01/05 05:16:23;;;;;;;50.17;26.00;;;230.60;2073.60;;;;;;5015914;28;20113;-73
2021/01/05 05:18:49;;;;;;;45.50;25.08;;;230.60;2073.60;;;;;;5015813;28;20062;-74
2021/01/05 05:21:23;;;;;;;47.90;26.30;;;230.60;2073.60;;;;;;5015852;28;20045;-74
2021/01/05 05:24:22;;;;;;;52.20;27.38;;;230.60;2073.60;;;;;;5015784;28;20053;-74
2021/01/05 05:27:06;;;;;;;54.08;28.50;;;230.60;2073.60;;;;;;5015608;28;20040;-74
2021/01/05 05:29:40;;;;;;;46.78;25.55;;;230.60;2073.60;;;;;;5015714;28;20022;-74
2021/01/05 05:32:22;;;;;;;36.50;21.08;;;230.60;2073.60;;;;;;5087858;28;20496;-74
2021/01/05 05:35:02;;;;;;;34.22;19.98;;;230.60;2048.00;;;;;;5097493;28;20036;-75
2021/01/05 05:37:57;;;;;;;32.88;18.63;;;230.60;2073.60;;;;;;5097501;28;20024;-74
2021/01/05 05:41:00;;;;;;;32.28;18.58;;;230.60;2073.60;;;;;;5094484;28;20043;-74
2021/01/05 05:43:57;;;;;;;25.88;16.50;;;230.60;2048.00;;;;;;5015110;28;20044;-74
2021/01/05 05:46:45;;;;;;;24.85;15.77;;;230.60;2048.00;;;;;;5015128;28;20117;-73
2021/01/05 05:49:44;;;;;;;28.70;16.70;;;230.50;2048.00;;;;;;4956822;28;20039;-73
2021/01/05 05:52:27;;;;;;;27.45;17.05;;;230.50;2048.00;;;;;;4956498;28;20185;-73
2021/01/05 05:54:54;;;;;;;30.88;18.75;;;230.50;2048.00;;;;;;4956500;29;20035;-72
2021/01/05 05:57:31;;;;;;;32.45;20.98;;;230.50;2048.00;;;;;;4956480;28;20031;-74
2021/01/05 06:00:17;;;;;;;35.83;20.20;;;230.50;2048.00;;;;;;4956408;28;20039;-73
2021/01/05 06:02:42;;;;;;;;;;;230.50;2048.00;;;;;;4956769;28;20564;-72
2021/01/05 06:05:29;;;;;;;34.50;22.15;;;230.50;2048.00;;;;;;4956618;28;19989;-75
2021/01/05 06:07:56;;;;;;;37.33;23.60;;;230.40;2048.00;;;;;;4956174;28;20056;-73
2021/01/05 06:10:21;;;;;;;36.00;22.85;;;230.40;2048.00;;;;;;4956167;28;20074;-74
2021/01/05 06:12:47;;;;;;;36.40;22.88;;;230.40;2048.00;;;;;;4956065;28;20047;-74
2021/01/05 06:15:13;;;;;;;37.25;23.70;;;230.40;2048.00;;;;;;4956395;28;20027;-75
2021/01/05 06:17:39;;;;;;;40.03;23.98;;;230.40;2048.00;;;;;;4956101;28;20034;-73
2021/01/05 06:20:05;;;;;;;42.30;24.00;;;230.40;2048.00;;;;;;4993990;28;20026;-74
2021/01/05 06:22:31;;;;;;;43.53;23.75;;;230.40;2022.40;;;;;;5014723;28;20033;-73
2021/01/05 06:24:57;;;;;;;44.55;23.65;;;230.40;2048.00;;;;;;5014425;28;20032;-73
2021/01/05 06:27:23;;;;;;;44.83;25.08;;;230.40;2048.00;;;;;;5055501;28;20045;-74
2021/01/05 06:29:48;;;;;;;42.95;24.73;;;230.40;2048.00;;;;;;5056582;28;20025;-80
2021/01/05 06:32:14;;;;;;;47.20;24.92;;;205.70;2048.00;;;;;;5056003;28;20025;-73
2021/01/05 06:34:40;;;;;;;50.13;26.67;;;205.70;2022.40;;;;;;5056054;28;20033;-74
2021/01/05 06:37:06;;;;;;;59.80;27.10;;;205.70;2048.00;;;;;;5055987;28;20021;-75
2021/01/05 06:39:31;;;;;;;47.75;24.27;;;205.70;2048.00;;;;;;5055815;28;20025;-68
2021/01/05 06:41:57;;;;;;;55.45;26.77;;;230.40;2176.00;;;;;;5056133;28;20108;-68
2021/01/05 06:44:23;;;;;;;48.03;23.50;;;230.50;2099.20;;;;;;5055733;28;20021;-68
2021/01/05 06:46:53;;;;;;;44.22;23.73;;;230.40;2073.60;;;;;;5056009;28;20091;-69
2021/01/05 06:49:19;;;;;;;43.80;24.17;;;230.50;2099.20;;;;;;5055938;28;20025;-73
2021/01/05 06:51:45;;;;;;;40.97;23.23;;;230.40;2073.60;;;;;;5055848;28;20490;-73
2021/01/05 06:54:11;;;;;;;43.78;22.48;;;230.40;2022.40;;;;;;5055879;28;20025;-73
2021/01/05 06:56:51;;;;;;;46.08;24.67;;;205.70;2022.40;;;;;;5054270;28;20033;-73
2021/01/05 06:59:18;;;;;;;49.15;25.92;;;205.60;2022.40;;;;;;5055579;28;20029;-71
2021/01/05 07:02:05;;;;;;;55.55;27.75;;;205.60;2022.40;;;;;;5064920;28;20048;-71
2021/01/05 07:04:31;;;;;;;51.75;25.83;;;205.50;2048.00;;;;;;5095820;28;20115;-72
2021/01/05 07:06:58;;;;;;;46.88;24.35;;;205.40;2048.00;;;;;;5077450;28;20386;-72
2021/01/05 07:09:24;;;;;;;57.97;28.67;;;205.40;2048.00;;;;;;5095479;28;20024;-73
2021/01/05 07:11:51;;;;;;;52.97;26.13;;;205.30;2048.00;;;;;;5095256;28;20028;-72
2021/01/05 07:14:20;;;;;;;61.40;28.88;;;205.30;2048.00;;;;;;5095617;28;20103;-73
2021/01/05 07:16:46;;;;;;;65.25;28.35;;;205.30;2073.60;;;;;;5094449;28;20370;-73
2021/01/05 07:19:12;;;;;;;65.38;30.60;;;205.30;2073.60;;;;;;5095384;28;20078;-73
2021/01/05 07:21:38;;;;;;;55.85;27.55;;;205.30;2073.60;;;;;;5095536;28;20032;-73
2021/01/05 07:24:04;;;;;;;48.95;24.08;;;205.30;2048.00;;;;;;5095575;28;20465;-73
2021/01/05 07:26:39;;;;;;;50.78;23.52;;;205.40;2048.00;;;;;;5095153;28;20031;-73
2021/01/05 07:29:05;;;;;;;54.28;24.27;;;205.40;2048.00;;;;;;5095034;28;20462;-74
2021/01/05 07:31:31;;;;;;;53.42;25.77;;;205.40;2048.00;;;;;;5076010;28;20032;-74
2021/01/05 07:33:57;;;;;;;46.58;22.70;;;205.40;2048.00;;;;;;5095168;28;20040;-73
2021/01/05 07:36:28;;;;;;;47.20;23.38;;;205.70;2227.20;;;;;;5093660;28;20077;-74
2021/01/05 07:38:54;;;;;;;44.90;22.88;;;205.70;2099.20;;;;;;5091304;28;20025;-74
2021/01/05 07:41:20;;;;;;;56.05;26.85;;;205.60;2048.00;;;;;;5093485;28;20016;-73
2021/01/05 07:43:47;;;;;;;46.67;24.92;;;205.60;2048.00;;;;;;5093550;28;20069;-73
2021/01/05 07:46:13;;;;;;;49.90;24.20;;;205.60;2022.40;;;;;;5088240;28;20073;-74
2021/01/05 07:48:39;;;;;;;46.05;23.40;;;205.50;2022.40;;;;;;5093359;28;20465;-74
2021/01/05 07:51:06;;;;;;;41.08;23.10;;;205.50;2022.40;;;;;;5093555;28;20020;-74
2021/01/05 07:53:32;;;;;;;42.40;23.48;;;205.50;2022.40;;;;;;5090561;28;20039;-74
2021/01/05 07:55:58;;;;;;;45.20;24.10;;;205.50;2022.40;;;;;;5093657;28;20045;-73
2021/01/05 07:58:24;;;;;;;44.05;24.95;;;205.50;2022.40;;;;;;5093300;28;20027;-73
2021/01/05 08:00:49;;;;;;;51.17;25.70;;;205.50;2022.40;;;;;;5094477;28;20150;-74
2021/01/05 08:03:15;;;;;;;66.75;27.20;;;205.50;2022.40;;;;;;5094280;28;20044;-75
2021/01/05 08:05:41;;;;;;;80.15;30.25;;;205.50;2022.40;;;;;;5094502;28;20077;-69
2021/01/05 08:08:07;;;;;;;63.05;28.50;;;205.50;2048.00;;;;;;5094517;28;20020;-69
2021/01/05 08:10:37;;;;;;;66.82;30.73;;;205.50;2022.40;;;;;;5094102;28;20412;-69
2021/01/05 08:13:06;;;;;;;58.40;29.42;;;205.50;2048.00;;;;;;5094201;28;20036;-70
2021/01/05 08:15:32;;;;;;;82.63;26.33;;;205.40;2022.40;;;;;;5094562;28;20380;-71
2021/01/05 08:17:59;;;;;;;75.75;28.48;;;205.50;2048.00;;;;;;5094560;28;20028;-69
2021/01/05 08:20:27;;;;;;;54.35;28.55;;;205.50;2022.40;;;;;;5094470;28;20141;-71
2021/01/05 08:22:54;;;;;;;58.58;30.23;;;205.50;2022.40;;;;;;5094271;28;20427;-71
2021/01/05 08:25:21;;;;;;;52.38;30.30;;;205.50;2022.40;;;;;;5094381;28;20091;-71
2021/01/05 08:27:49;;;;;;;56.92;32.22;;;205.40;2022.40;;;;;;5094300;28;20024;-72
2021/01/05 08:30:26;;;;;;;49.50;28.40;;;205.50;1996.80;;;;;;5076246;28;20020;-70
2021/01/05 08:32:53;;;;;;;52.58;29.83;;;205.40;1996.80;;;;;;5094105;28;20039;-70
2021/01/05 08:35:22;;;;;;;56.13;30.38;;;205.40;1996.80;;;;;;5094426;28;20027;-72
2021/01/05 08:37:48;;;;;;;42.40;26.45;;;205.40;1996.80;;;;;;5093757;28;20039;-72
2021/01/05 08:40:27;;;;;;;50.42;27.52;;;205.40;1996.80;;;;;;5075793;28;20024;-71
2021/01/05 08:42:54;;;;;;;53.63;27.42;;;205.50;1996.80;;;;;;5093435;28;20493;-71
2021/01/05 08:45:20;;;;;;;54.38;29.88;;;205.50;1996.80;;;;;;5094011;28;20023;-70
2021/01/05 08:47:47;;;;;;;50.88;29.42;;;205.50;1996.80;;;;;;5094600;28;20032;-73
2021/01/05 08:50:28;;;;;;;49.97;28.30;;;205.40;1996.80;;;;;;5093944;28;20023;-73
2021/01/05 08:52:55;;;;;;;50.13;27.13;;;205.40;1996.80;;;;;;5094075;28;20036;-80
2021/01/05 08:55:21;;;;;;;44.95;25.98;;;205.40;1996.80;;;;;;5094239;28;20028;-72
2021/01/05 08:57:47;;;;;;;52.80;25.83;;;205.40;1996.80;;;;;;5093216;28;20047;-72
2021/01/05 09:00:13;;;;;;;41.90;22.73;;;205.40;1996.80;;;;;;5093342;28;20028;-77
2021/01/05 09:02:39;;;;;;;41.80;23.63;;;205.50;1996.80;;;;;;5093321;28;20512;-82
2021/01/05 09:05:06;;;;;;;43.30;23.63;;;205.50;1996.80;;;;;;5076250;28;20138;-72
2021/01/05 09:07:32;;;;;;;39.80;21.83;;;205.50;1971.20;;;;;;5094254;28;20024;-75
2021/01/05 09:09:58;;;;;;;46.13;25.50;;;205.50;1971.20;;;;;;5075630;28;20427;-78
2021/01/05 09:12:23;;;;;;;36.78;23.85;;;205.60;2022.40;;;;;;5093806;28;20040;-74
2021/01/05 09:14:49;;;;;;;41.03;24.75;;;205.50;1971.20;;;;;;5093485;28;20020;-76
2021/01/05 09:17:17;;;;;;;45.80;25.88;;;205.50;1971.20;;;;;;5092603;28;20363;-72
2021/01/05 09:19:42;;;;;;;43.55;26.83;;;205.50;1971.20;;;;;;5093562;28;20381;-74
2021/01/05 09:22:08;;;;;;;41.30;24.92;;;205.50;1971.20;;;;;;5093993;28;20032;-75
2021/01/05 09:24:46;;;;;;;40.88;25.70;;;205.50;1971.20;;;;;;5093328;28;20070;-77
2021/01/05 09:27:11;;;;;;;38.65;23.88;;;205.50;1971.20;;;;;;5093569;28;20036;-70
2021/01/05 09:29:37;;;;;;;39.20;24.35;;;205.50;1971.20;;;;;;5092762;28;20032;-76
2021/01/05 09:32:03;;;;;;;34.83;20.58;;;205.50;1971.20;;;;;;5093462;28;20032;-75
2021/01/05 09:34:28;;;;;;;37.65;22.50;;;205.50;1971.20;;;;;;5074773;28;20478;-75
2021/01/05 09:36:54;;;;;;;35.67;22.35;;;205.50;1971.20;;;;;;5093561;28;20032;-75
2021/01/05 09:39:23;;;;;;;38.67;24.08;;;205.50;1971.20;;;;;;5093623;28;20024;-68
2021/01/05 09:41:57;;;;;;;52.67;29.15;;;205.50;1971.20;;;;;;5093567;28;20036;-71
2021/01/05 09:44:23;;;;;;;45.92;29.25;;;205.70;2124.80;;;;;;5093179;28;20444;-73
2021/01/05 09:46:53;;;;;;;47.75;28.15;;;230.40;2073.60;;;;;;5109142;28;20069;-70
2021/01/05 09:49:19;;;;;;;48.50;28.48;;;230.40;1996.80;;;;;;5093485;28;20074;-72
2021/01/05 09:51:45;;;;;;;50.15;27.98;;;230.40;1996.80;;;;;;5092981;28;20058;-74
2021/01/05 09:54:12;;;;;;;42.60;26.40;;;230.40;1971.20;;;;;;5093332;28;20032;-67
2021/01/05 09:56:38;;;;;;;44.88;24.48;;;205.70;1971.20;;;;;;5096600;28;20552;-68
2021/01/05 09:59:04;;;;;;;48.92;26.63;;;205.70;1971.20;;;;;;5097026;28;20032;-67
2021/01/05 10:01:32;;;;;;;50.10;26.40;;;205.70;1971.20;;;;;;5096087;28;20052;-73
2021/01/05 10:03:58;;;;;;;53.17;28.42;;;205.70;1971.20;;;;;;5097122;28;20032;-72
2021/01/05 10:06:29;;;;;;;49.33;28.55;;;205.70;1945.60;;;;;;5096292;28;20028;-78
2021/01/05 10:08:54;;;;;;;39.90;25.40;;;205.70;1945.60;;;;;;5097064;28;20069;-77
2021/01/05 10:11:20;;;;;;;42.28;23.50;;;205.70;1945.60;;;;;;5096779;28;20442;-77
2021/01/05 10:13:46;;;;;;;37.58;24.17;;;205.70;1945.60;;;;;;5078790;28;20127;-81
2021/01/05 10:16:12;;;;;;;31.65;20.73;;;205.70;1920.00;;;;;;5097003;28;20038;-73
2021/01/05 10:18:38;;;;;;;32.42;22.20;;;205.60;1945.60;;;;;;5097071;28;20349;-75
2021/01/05 10:21:04;;;;;;;35.75;22.55;;;205.60;1920.00;;;;;;5096738;28;20024;-75
2021/01/05 10:23:29;;;;;;;35.15;23.88;;;205.60;1920.00;;;;;;5096664;28;20026;-75
2021/01/05 10:25:55;;;;;;;59.10;35.75;;;205.60;1920.00;;;;;;5096377;28;20020;-75
2021/01/05 10:28:21;;;;;;;66.97;40.47;;;205.60;1920.00;;;;;;5095762;28;20493;-74
2021/01/05 10:30:46;;;;;;;66.88;41.85;;;205.60;1945.60;;;;;;5078430;28;20032;-75
2021/01/05 10:33:12;;;;;;;79.97;51.47;;;205.60;1920.00;;;;;;5096461;28;20032;-75
2021/01/05 10:35:38;;;;;;;93.82;60.53;;;205.60;1945.60;;;;;;5096377;28;20115;-75
2021/01/05 10:38:03;;;;;;;75.53;54.33;;;205.60;1945.60;;;;;;5096259;28;20032;-75
2021/01/05 10:40:29;;;;;;;74.80;51.35;;;205.60;1945.60;;;;;;5096277;28;20359;-75
2021/01/05 10:42:55;;;;;;;76.13;53.05;;;205.60;1945.60;;;;;;5096305;28;20466;-75
2021/01/05 10:45:25;;;;;;;55.13;37.97;;;205.70;1945.60;;;;;;5096084;28;20031;-75
2021/01/05 10:47:52;;;;;;;42.80;32.15;;;205.70;1945.60;;;;;;5096306;28;20397;-75
2021/01/05 10:50:22;;;;;;;73.45;44.33;;;205.70;1945.60;;;;;;5095981;28;20032;-75
2021/01/05 10:52:50;;;;;;;71.10;45.28;;;205.60;1920.00;;;;;;5095896;28;20499;-75
2021/01/05 10:55:18;;;;;;;81.05;51.10;;;205.70;1945.60;;;;;;5095908;28;20485;-75
2021/01/05 10:57:44;;;;;;;71.53;50.17;;;205.70;1945.60;;;;;;5096055;28;20028;-75
2021/01/05 11:00:13;;;;;;;67.78;45.47;;;205.70;1920.00;;;;;;5096049;28;20046;-74
2021/01/05 11:02:39;;;;;;;57.30;38.13;;;205.70;1945.60;;;;;;5095754;28;20515;-74
2021/01/05 11:05:05;;;;;;;62.30;41.20;;;205.70;1945.60;;;;;;5077369;28;20032;-74
2021/01/05 11:07:31;;;;;;;107.60;65.65;;;205.70;1945.60;;;;;;5095432;28;20461;-75
2021/01/05 11:09:58;;;;;;;145.55;91.47;;;205.70;1945.60;;;;;;5095676;28;20031;-76
2021/01/05 11:12:27;;;;;;;129.02;82.65;;;205.70;1945.60;;;;;;5095619;28;20036;-75
2021/01/05 11:14:53;;;;;;;124.10;78.38;;;205.70;1945.60;;;;;;5095652;28;20017;-75
2021/01/05 11:17:20;;;;;;;83.22;50.88;;;230.40;1971.20;;;;;;5095691;28;20107;-75
2021/01/05 11:19:46;;;;;;;59.03;42.25;;;230.40;1971.20;;;;;;5095306;28;20020;-75
2021/01/05 11:22:17;;;;;;;61.95;41.33;;;230.40;1945.60;;;;;;5077402;28;20039;-75
2021/01/05 11:24:45;;;;;;;114.25;65.38;;;230.40;1945.60;;;;;;5095525;28;20133;-75
2021/01/05 11:27:13;;;;;;;144.15;83.47;;;230.50;1920.00;;;;;;5095391;28;20047;-75
2021/01/05 11:29:38;;;;;;;111.50;66.25;;;230.40;1920.00;;;;;;5077140;28;20066;-75
2021/01/05 11:32:07;;;;;;;80.30;47.90;;;230.50;1920.00;;;;;;5094831;28;20478;-75
2021/01/05 11:34:34;;;;;;;60.22;35.83;;;230.40;1920.00;;;;;;5076713;28;20504;-75
2021/01/05 11:37:07;;;;;;;50.92;31.63;;;230.50;1920.00;;;;;;5095136;28;20020;-75
2021/01/05 11:39:33;;;;;;;46.47;29.33;;;230.50;1920.00;;;;;;5094870;28;20108;-75
2021/01/05 11:42:00;;;;;;;47.92;28.98;;;230.60;1920.00;;;;;;5094780;28;20040;-75
2021/01/05 11:44:26;;;;;;;46.13;26.65;;;230.60;1894.40;;;;;;5094770;28;20020;-76
2021/01/05 11:46:52;;;;;;;52.08;29.17;;;230.60;1894.40;;;;;;5095109;28;20020;-75
2021/01/05 11:49:18;;;;;;;52.58;28.80;;;230.60;1894.40;;;;;;5094938;28;20020;-75
2021/01/05 11:51:44;;;;;;;53.58;29.73;;;230.60;1920.00;;;;;;5094912;28;20031;-75
2021/01/05 11:54:10;;;;;;;51.55;30.67;;;230.60;1894.40;;;;;;5076650;28;20043;-75
2021/01/05 11:56:36;;;;;;;50.28;28.55;;;230.50;1894.40;;;;;;5094816;28;20519;-75
2021/01/05 11:59:04;;;;;;;54.58;31.67;;;230.50;1894.40;;;;;;5094304;28;20036;-75
2021/01/05 12:01:35;;;;;;;51.25;30.10;;;230.60;1920.00;;;;;;5094555;28;20054;-75
2021/01/05 12:04:02;;;;;;;61.17;38.05;;;230.50;1894.40;;;;;;5094640;28;20024;-75
2021/01/05 12:06:28;;;;;;;68.55;40.20;;;230.50;1894.40;;;;;;5076473;28;20111;-74
2021/01/05 12:08:54;;;;;;;58.50;36.63;;;230.60;1894.40;;;;;;5094564;28;20145;-75
2021/01/05 12:11:23;;;;;;;60.10;36.22;;;230.60;1920.00;;;;;;5094032;28;20039;-75
2021/01/05 12:13:49;;;;;;;56.47;33.67;;;230.60;1920.00;;;;;;5094345;28;20035;-75
2021/01/05 12:16:48;;;;;;;57.15;35.75;;;230.60;1920.00;;;;;;5094343;28;20412;-74